METAR Data
IDs: Format: Raw Decoded Include TAF

Data at: 0340 UTC 06 Dec 2019

METAR for:KGGI (Grinnell Rgnl, IA, US)
Text:KGGI 060335Z AUTO 32008KT 10SM CLR 03/01 A3000 RMK AO2 T00250005
Temperature: 2.5°C ( 36°F)
Dewpoint: 0.5°C ( 33°F) [RH = 87%]
Pressure (altimeter):30.00 inches Hg (1016.0 mb)
Winds:from the NW (320 degrees) at 9 MPH (8 knots; 4.1 m/s)
Visibility:10 or more sm (16+ km)
Ceiling:at least 12,000 feet AGL
Clouds:sky clear below 12,000 feet AGL
QC Flag:automated observation with no human augmentation